createdAt,value
2023-03-21T00:00:01.222Z,101670
2023-03-21T00:05:09.491Z,101660
2023-03-21T00:10:12.354Z,101650
2023-03-21T00:15:00.494Z,101650
2023-03-21T00:20:02.878Z,101650
2023-03-21T00:25:00.646Z,101650
2023-03-21T00:30:00.528Z,101640
2023-03-21T00:35:25.806Z,101640
2023-03-21T00:40:00.785Z,101630
2023-03-21T00:45:01.123Z,101630
2023-03-21T00:50:00.487Z,101620
2023-03-21T00:55:00.490Z,101620
2023-03-21T01:00:02.394Z,101610
2023-03-21T01:05:00.589Z,101610
2023-03-21T01:10:00.514Z,101600
2023-03-21T01:15:00.512Z,101600
2023-03-21T01:20:00.500Z,101590
2023-03-21T01:25:12.107Z,101590
2023-03-21T01:30:00.495Z,101580
2023-03-21T01:35:00.545Z,101580
2023-03-21T01:40:01.103Z,101580
2023-03-21T01:45:04.867Z,101570
2023-03-21T01:50:02.859Z,101570
2023-03-21T01:55:03.193Z,101560
2023-03-21T02:00:04.490Z,101560
2023-03-21T02:05:01.948Z,101550
2023-03-21T02:10:03.132Z,101550
2023-03-21T02:15:00.815Z,101540
2023-03-21T02:20:09.026Z,101540
2023-03-21T02:25:22.139Z,101530
2023-03-21T02:30:04.801Z,101530
2023-03-21T02:35:20.380Z,101520
2023-03-21T02:40:10.583Z,101520
2023-03-21T02:45:10.090Z,101510
2023-03-21T02:50:11.797Z,101510
2023-03-21T02:55:01.617Z,101510
2023-03-21T03:00:10.731Z,101510
2023-03-21T03:05:00.505Z,101510
2023-03-21T03:10:07.102Z,101510
2023-03-21T03:15:10.515Z,101510
2023-03-21T03:20:17.625Z,101500
2023-03-21T03:25:19.858Z,101490
2023-03-21T03:30:02.303Z,101500
2023-03-21T03:35:03.544Z,101490
2023-03-21T03:40:12.281Z,101490
2023-03-21T03:45:01.253Z,101480
2023-03-21T03:50:03.562Z,101490
2023-03-21T03:55:01.037Z,101480
2023-03-21T04:00:01.313Z,101480
2023-03-21T04:05:00.504Z,101480
2023-03-21T04:10:00.544Z,101480
2023-03-21T04:15:10.458Z,101470
2023-03-21T04:20:10.804Z,101460
2023-03-21T04:25:00.723Z,101460
2023-03-21T04:30:00.515Z,101460
2023-03-21T04:35:00.627Z,101450
2023-03-21T04:40:01.521Z,101450
2023-03-21T04:45:01.293Z,101440
2023-03-21T04:50:00.522Z,101440
2023-03-21T04:55:00.631Z,101440
2023-03-21T05:00:03.054Z,101430
2023-03-21T05:05:00.546Z,101430
2023-03-21T05:10:02.421Z,101430
2023-03-21T05:15:00.561Z,101430
2023-03-21T05:20:00.604Z,101420
2023-03-21T05:25:00.533Z,101420
2023-03-21T05:30:02.991Z,101420
2023-03-21T05:35:00.977Z,101420
2023-03-21T05:40:01.625Z,101420
2023-03-21T05:45:00.513Z,101420
2023-03-21T05:50:00.519Z,101420
2023-03-21T05:55:00.668Z,101420
2023-03-21T06:00:01.450Z,101420
2023-03-21T06:05:00.480Z,101410
2023-03-21T06:10:00.505Z,101410
2023-03-21T06:15:00.572Z,101410
2023-03-21T06:20:01.038Z,101400
2023-03-21T06:25:01.312Z,101400
2023-03-21T06:30:01.133Z,101420
2023-03-21T06:35:00.668Z,101420
2023-03-21T06:40:00.538Z,101420
2023-03-21T06:45:00.491Z,101420
2023-03-21T06:50:01.170Z,101420
2023-03-21T06:55:00.612Z,101420
2023-03-21T07:00:01.307Z,101420
2023-03-21T07:05:00.499Z,101420
2023-03-21T07:10:00.509Z,101420
2023-03-21T07:15:03.157Z,101420
2023-03-21T07:20:00.550Z,101430
2023-03-21T07:25:05.033Z,101430
2023-03-21T07:30:00.494Z,101440
2023-03-21T07:35:01.782Z,101440
2023-03-21T07:40:00.504Z,101440
2023-03-21T07:45:00.520Z,101430
2023-03-21T07:50:00.815Z,101420
2023-03-21T07:55:00.548Z,101410
2023-03-21T08:00:01.260Z,101400
2023-03-21T08:05:01.206Z,101410
2023-03-21T08:10:00.502Z,101410
2023-03-21T08:15:01.276Z,101400
2023-03-21T08:20:00.538Z,101400
2023-03-21T08:25:00.948Z,101400
2023-03-21T08:30:00.618Z,101390
2023-03-21T08:35:01.780Z,101390
2023-03-21T08:40:00.565Z,101380
2023-03-21T08:45:00.567Z,101380
2023-03-21T08:50:00.595Z,101370
2023-03-21T08:55:00.580Z,101370
2023-03-21T09:00:01.133Z,101360
2023-03-21T09:05:00.569Z,101360
2023-03-21T09:10:19.636Z,101360
2023-03-21T09:15:00.943Z,101350
2023-03-21T09:20:00.596Z,101350
2023-03-21T09:25:00.490Z,101350
2023-03-21T09:30:00.506Z,101350
2023-03-21T09:35:00.562Z,101340
2023-03-21T09:40:00.486Z,101330
2023-03-21T09:45:07.616Z,101320
2023-03-21T09:50:14.784Z,101320
2023-03-21T09:55:02.176Z,101310
2023-03-21T10:00:05.864Z,101310
2023-03-21T10:05:01.923Z,101310
2023-03-21T10:10:01.944Z,101310
2023-03-21T10:15:01.211Z,101320
2023-03-21T10:20:17.766Z,101310
2023-03-21T10:25:00.581Z,101300
2023-03-21T10:30:00.992Z,101310
2023-03-21T10:35:01.544Z,101300
2023-03-21T10:40:00.799Z,101290
2023-03-21T10:45:00.532Z,101290
2023-03-21T10:50:07.841Z,101300
2023-03-21T10:55:18.056Z,101300
2023-03-21T11:00:04.377Z,101300
2023-03-21T11:05:06.390Z,101300
2023-03-21T11:10:17.184Z,101300
2023-03-21T11:15:20.435Z,101290
2023-03-21T11:20:04.871Z,101290
2023-03-21T11:25:03.922Z,101280
2023-03-21T11:30:02.748Z,101270
2023-03-21T11:35:06.466Z,101280
2023-03-21T11:40:08.130Z,101280
2023-03-21T11:45:09.007Z,101260
2023-03-21T11:50:04.969Z,101270
2023-03-21T11:55:11.553Z,101270
2023-03-21T12:00:10.802Z,101270
2023-03-21T12:05:08.585Z,101260
2023-03-21T12:10:20.245Z,101270
2023-03-21T12:15:14.843Z,101250
2023-03-21T12:20:06.852Z,101240
2023-03-21T12:25:11.021Z,101240
2023-03-21T12:30:09.484Z,101240
2023-03-21T12:35:20.398Z,101230
2023-03-21T12:40:17.608Z,101220
2023-03-21T12:45:15.315Z,101210
2023-03-21T12:50:20.383Z,101210
2023-03-21T12:55:06.667Z,101210
2023-03-21T13:00:15.016Z,101200
2023-03-21T13:05:20.033Z,101190
2023-03-21T13:10:03.730Z,101190
2023-03-21T13:15:21.830Z,101180
2023-03-21T13:20:14.297Z,101180
2023-03-21T13:25:06.590Z,101170
2023-03-21T13:30:06.767Z,101180
2023-03-21T13:35:20.435Z,101170
2023-03-21T13:40:05.760Z,101170
2023-03-21T13:45:04.731Z,101170
2023-03-21T13:50:20.000Z,101160
2023-03-21T13:55:01.856Z,101160
2023-03-21T14:00:19.891Z,101150
2023-03-21T14:05:05.956Z,101140
2023-03-21T14:10:05.162Z,101140
2023-03-21T14:15:15.891Z,101140
2023-03-21T14:20:09.129Z,101140
2023-03-21T14:25:02.533Z,101130
2023-03-21T14:30:02.171Z,101120
2023-03-21T14:35:00.781Z,101120
2023-03-21T14:40:05.141Z,101120
2023-03-21T14:45:13.452Z,101110
2023-03-21T14:50:00.721Z,101110
2023-03-21T14:55:04.222Z,101120
2023-03-21T15:00:05.530Z,101110
2023-03-21T15:05:14.247Z,101120
2023-03-21T15:10:04.280Z,101130
2023-03-21T15:15:01.517Z,101120
2023-03-21T15:20:00.934Z,101110
2023-03-21T15:25:04.531Z,101100
2023-03-21T15:30:00.534Z,101090
2023-03-21T15:35:06.976Z,101080
2023-03-21T15:40:19.307Z,101080
2023-03-21T15:45:07.581Z,101090
2023-03-21T15:50:07.192Z,101090
2023-03-21T15:55:00.775Z,101100
2023-03-21T16:00:20.732Z,101110
2023-03-21T16:05:12.416Z,101110
2023-03-21T16:10:02.978Z,101120
2023-03-21T16:15:00.713Z,101130
2023-03-21T16:20:00.508Z,101130
2023-03-21T16:25:00.540Z,101140
2023-03-21T16:30:00.592Z,101130
2023-03-21T16:35:00.496Z,101130
2023-03-21T16:40:01.254Z,101140
2023-03-21T16:45:00.504Z,101150
2023-03-21T16:50:00.630Z,101140
2023-03-21T16:55:00.511Z,101130
2023-03-21T17:00:01.303Z,101130
2023-03-21T17:05:01.319Z,101120
2023-03-21T17:10:00.488Z,101110
2023-03-21T17:15:00.794Z,101110
2023-03-21T17:20:01.024Z,101130
2023-03-21T17:25:00.498Z,101130
2023-03-21T17:30:00.815Z,101130
2023-03-21T17:35:00.574Z,101130
2023-03-21T17:40:00.468Z,101120
2023-03-21T17:45:00.537Z,101110
2023-03-21T17:50:00.999Z,101110
2023-03-21T17:55:00.577Z,101110
2023-03-21T18:00:01.339Z,101120
2023-03-21T18:05:00.575Z,101110
2023-03-21T18:10:00.562Z,101100
2023-03-21T18:15:02.301Z,101120
2023-03-21T18:20:00.685Z,101110
2023-03-21T18:25:00.491Z,101120
2023-03-21T18:30:41.249Z,101110
2023-03-21T18:35:00.765Z,101110
2023-03-21T18:40:00.685Z,101110
2023-03-21T18:45:00.576Z,101110
2023-03-21T18:50:15.279Z,101110
2023-03-21T18:55:00.572Z,101110
2023-03-21T19:00:03.101Z,101110
2023-03-21T19:05:00.607Z,101100
2023-03-21T19:10:17.149Z,101110
2023-03-21T19:15:00.599Z,101110
2023-03-21T19:20:00.498Z,101110
2023-03-21T19:25:00.491Z,101100
2023-03-21T19:30:13.422Z,101100
2023-03-21T19:35:00.617Z,101100
2023-03-21T19:40:00.737Z,101100
2023-03-21T19:45:01.272Z,101100
2023-03-21T19:50:47.207Z,101100
2023-03-21T19:55:00.549Z,101100
2023-03-21T20:00:01.426Z,101100
2023-03-21T20:05:00.491Z,101090
2023-03-21T20:10:00.508Z,101090
2023-03-21T20:15:12.255Z,101090
2023-03-21T20:20:00.592Z,101080
2023-03-21T20:25:00.620Z,101080
2023-03-21T20:30:09.056Z,101080
2023-03-21T20:35:13.669Z,101080
2023-03-21T20:40:00.921Z,101080
2023-03-21T20:45:00.922Z,101080
2023-03-21T20:50:00.485Z,101080
2023-03-21T20:55:01.335Z,101070
2023-03-21T21:00:01.116Z,101060
2023-03-21T21:05:28.314Z,101050
2023-03-21T21:10:00.530Z,101050
2023-03-21T21:15:00.616Z,101050
2023-03-21T21:20:03.854Z,101040
2023-03-21T21:25:00.498Z,101040
2023-03-21T21:30:00.611Z,101040
2023-03-21T21:35:00.582Z,101040
2023-03-21T21:40:00.867Z,101040
2023-03-21T21:45:00.509Z,101030
2023-03-21T21:50:00.596Z,101030
2023-03-21T21:55:00.813Z,101030
2023-03-21T22:00:02.898Z,101020
2023-03-21T22:05:00.483Z,101030
2023-03-21T22:10:00.553Z,101020
2023-03-21T22:15:00.813Z,101010
2023-03-21T22:20:06.020Z,101010
2023-03-21T22:25:00.744Z,101020
2023-03-21T22:30:01.036Z,101010
2023-03-21T22:35:00.892Z,101010
2023-03-21T22:40:00.616Z,101010
2023-03-21T22:45:00.547Z,101010
2023-03-21T22:50:00.878Z,101010
2023-03-21T22:55:00.600Z,101010
2023-03-21T23:00:02.777Z,101000
2023-03-21T23:05:00.474Z,101000
2023-03-21T23:10:00.520Z,100990
2023-03-21T23:15:02.253Z,100990
2023-03-21T23:20:01.345Z,100990
2023-03-21T23:25:00.624Z,100990
2023-03-21T23:30:01.341Z,100980
2023-03-21T23:35:00.553Z,100990
2023-03-21T23:40:00.768Z,100980
2023-03-21T23:45:00.553Z,100980
2023-03-21T23:50:00.555Z,100980
2023-03-21T23:55:00.500Z,100970
